sensor_id;sensor_type;location;lat;lon;timestamp;P1;durP1;ratioP1;P2;durP2;ratioP2
77099;SDS011;66602;48.922;2.414;2023-04-24T00:02:22;2.10;;;2.00;;
77099;SDS011;66602;48.922;2.414;2023-04-24T00:04:49;2.08;;;1.98;;
77099;SDS011;66602;48.922;2.414;2023-04-24T00:07:14;2.17;;;2.08;;
77099;SDS011;66602;48.922;2.414;2023-04-24T00:09:41;5.60;;;2.25;;
77099;SDS011;66602;48.922;2.414;2023-04-24T00:12:08;3.17;;;2.25;;
77099;SDS011;66602;48.922;2.414;2023-04-24T00:14:33;2.50;;;2.33;;
77099;SDS011;66602;48.922;2.414;2023-04-24T00:17:00;2.67;;;2.08;;
77099;SDS011;66602;48.922;2.414;2023-04-24T00:19:27;6.25;;;2.25;;
77099;SDS011;66602;48.922;2.414;2023-04-24T00:21:53;3.22;;;2.35;;
77099;SDS011;66602;48.922;2.414;2023-04-24T00:24:19;2.47;;;2.10;;
77099;SDS011;66602;48.922;2.414;2023-04-24T00:26:45;3.65;;;2.20;;
77099;SDS011;66602;48.922;2.414;2023-04-24T00:29:10;2.42;;;1.95;;
77099;SDS011;66602;48.922;2.414;2023-04-24T00:31:36;3.10;;;1.98;;
77099;SDS011;66602;48.922;2.414;2023-04-24T00:34:02;2.67;;;2.30;;
77099;SDS011;66602;48.922;2.414;2023-04-24T00:36:28;2.45;;;1.90;;
77099;SDS011;66602;48.922;2.414;2023-04-24T00:38:54;5.53;;;2.55;;
77099;SDS011;66602;48.922;2.414;2023-04-24T00:41:20;5.55;;;1.67;;
77099;SDS011;66602;48.922;2.414;2023-04-24T00:43:47;2.63;;;2.13;;
77099;SDS011;66602;48.922;2.414;2023-04-24T00:46:12;5.30;;;2.13;;
77099;SDS011;66602;48.922;2.414;2023-04-24T00:48:39;3.83;;;2.63;;
77099;SDS011;66602;48.922;2.414;2023-04-24T00:51:05;7.32;;;3.33;;
77099;SDS011;66602;48.922;2.414;2023-04-24T00:53:31;2.28;;;2.08;;
77099;SDS011;66602;48.922;2.414;2023-04-24T00:55:56;4.75;;;1.83;;
77099;SDS011;66602;48.922;2.414;2023-04-24T00:58:22;6.35;;;2.53;;
77099;SDS011;66602;48.922;2.414;2023-04-24T01:00:48;5.43;;;2.55;;
77099;SDS011;66602;48.922;2.414;2023-04-24T01:03:18;8.85;;;2.78;;
77099;SDS011;66602;48.922;2.414;2023-04-24T01:05:48;7.05;;;2.20;;
77099;SDS011;66602;48.922;2.414;2023-04-24T01:08:14;3.75;;;2.20;;
77099;SDS011;66602;48.922;2.414;2023-04-24T01:10:40;8.88;;;2.40;;
77099;SDS011;66602;48.922;2.414;2023-04-24T01:13:08;6.32;;;2.35;;
77099;SDS011;66602;48.922;2.414;2023-04-24T01:15:34;5.88;;;2.20;;
77099;SDS011;66602;48.922;2.414;2023-04-24T01:18:00;9.18;;;2.10;;
77099;SDS011;66602;48.922;2.414;2023-04-24T01:20:25;4.47;;;2.20;;
77099;SDS011;66602;48.922;2.414;2023-04-24T01:22:51;3.13;;;2.17;;
77099;SDS011;66602;48.922;2.414;2023-04-24T01:25:17;3.10;;;2.80;;
77099;SDS011;66602;48.922;2.414;2023-04-24T01:27:43;6.40;;;2.70;;
77099;SDS011;66602;48.922;2.414;2023-04-24T01:30:09;8.73;;;2.58;;
77099;SDS011;66602;48.922;2.414;2023-04-24T01:32:36;5.18;;;2.20;;
77099;SDS011;66602;48.922;2.414;2023-04-24T01:35:04;12.70;;;7.63;;
77099;SDS011;66602;48.922;2.414;2023-04-24T01:37:33;6.47;;;2.60;;
77099;SDS011;66602;48.922;2.414;2023-04-24T01:39:58;7.15;;;2.72;;
77099;SDS011;66602;48.922;2.414;2023-04-24T01:42:24;5.53;;;2.47;;
77099;SDS011;66602;48.922;2.414;2023-04-24T01:44:50;5.53;;;2.78;;
77099;SDS011;66602;48.922;2.414;2023-04-24T01:47:16;5.47;;;2.70;;
77099;SDS011;66602;48.922;2.414;2023-04-24T01:49:42;5.25;;;3.08;;
77099;SDS011;66602;48.922;2.414;2023-04-24T01:52:07;2.83;;;2.60;;
77099;SDS011;66602;48.922;2.414;2023-04-24T01:54:33;4.78;;;2.63;;
77099;SDS011;66602;48.922;2.414;2023-04-24T01:56:58;7.03;;;3.35;;
77099;SDS011;66602;48.922;2.414;2023-04-24T01:59:26;11.00;;;3.22;;
77099;SDS011;66602;48.922;2.414;2023-04-24T02:01:52;6.38;;;2.70;;
77099;SDS011;66602;48.922;2.414;2023-04-24T02:04:18;9.15;;;2.72;;
77099;SDS011;66602;48.922;2.414;2023-04-24T02:06:44;5.10;;;2.55;;
77099;SDS011;66602;48.922;2.414;2023-04-24T02:09:09;7.28;;;2.60;;
77099;SDS011;66602;48.922;2.414;2023-04-24T02:11:35;6.55;;;3.05;;
77099;SDS011;66602;48.922;2.414;2023-04-24T02:14:01;6.45;;;2.97;;
77099;SDS011;66602;48.922;2.414;2023-04-24T02:16:27;4.25;;;2.78;;
77099;SDS011;66602;48.922;2.414;2023-04-24T02:18:57;5.22;;;2.92;;
77099;SDS011;66602;48.922;2.414;2023-04-24T02:21:22;6.47;;;2.55;;
77099;SDS011;66602;48.922;2.414;2023-04-24T02:23:48;11.10;;;3.60;;
77099;SDS011;66602;48.922;2.414;2023-04-24T02:26:13;5.88;;;2.50;;
77099;SDS011;66602;48.922;2.414;2023-04-24T02:28:39;7.57;;;2.42;;
77099;SDS011;66602;48.922;2.414;2023-04-24T02:31:04;4.07;;;2.50;;
77099;SDS011;66602;48.922;2.414;2023-04-24T02:33:31;4.38;;;2.42;;
77099;SDS011;66602;48.922;2.414;2023-04-24T02:35:57;5.95;;;2.80;;
77099;SDS011;66602;48.922;2.414;2023-04-24T02:38:22;5.18;;;2.15;;
77099;SDS011;66602;48.922;2.414;2023-04-24T02:40:48;2.95;;;2.75;;
77099;SDS011;66602;48.922;2.414;2023-04-24T02:43:13;4.53;;;2.90;;
77099;SDS011;66602;48.922;2.414;2023-04-24T02:45:38;5.63;;;2.17;;
77099;SDS011;66602;48.922;2.414;2023-04-24T02:48:04;5.68;;;2.17;;
77099;SDS011;66602;48.922;2.414;2023-04-24T02:50:29;4.75;;;2.40;;
77099;SDS011;66602;48.922;2.414;2023-04-24T02:52:55;9.25;;;2.42;;
77099;SDS011;66602;48.922;2.414;2023-04-24T02:55:20;5.72;;;2.25;;
77099;SDS011;66602;48.922;2.414;2023-04-24T02:57:46;9.35;;;2.30;;
77099;SDS011;66602;48.922;2.414;2023-04-24T03:00:11;4.47;;;2.50;;
77099;SDS011;66602;48.922;2.414;2023-04-24T03:02:38;3.80;;;2.50;;
77099;SDS011;66602;48.922;2.414;2023-04-24T03:05:04;6.82;;;2.72;;
77099;SDS011;66602;48.922;2.414;2023-04-24T03:07:29;2.63;;;2.30;;
77099;SDS011;66602;48.922;2.414;2023-04-24T03:09:56;10.93;;;2.42;;
77099;SDS011;66602;48.922;2.414;2023-04-24T03:12:23;5.38;;;2.75;;
77099;SDS011;66602;48.922;2.414;2023-04-24T03:14:49;8.80;;;2.60;;
77099;SDS011;66602;48.922;2.414;2023-04-24T03:17:14;3.92;;;2.42;;
77099;SDS011;66602;48.922;2.414;2023-04-24T03:19:40;3.03;;;2.60;;
77099;SDS011;66602;48.922;2.414;2023-04-24T03:22:05;3.40;;;2.38;;
77099;SDS011;66602;48.922;2.414;2023-04-24T03:24:31;6.43;;;3.10;;
77099;SDS011;66602;48.922;2.414;2023-04-24T03:26:57;7.65;;;2.45;;
77099;SDS011;66602;48.922;2.414;2023-04-24T03:29:22;6.53;;;3.17;;
77099;SDS011;66602;48.922;2.414;2023-04-24T03:31:57;8.73;;;2.67;;
77099;SDS011;66602;48.922;2.414;2023-04-24T03:34:23;4.40;;;2.53;;
77099;SDS011;66602;48.922;2.414;2023-04-24T03:36:48;9.02;;;2.40;;
77099;SDS011;66602;48.922;2.414;2023-04-24T03:39:14;7.93;;;2.78;;
77099;SDS011;66602;48.922;2.414;2023-04-24T03:41:40;3.35;;;2.28;;
77099;SDS011;66602;48.922;2.414;2023-04-24T03:44:06;7.20;;;2.30;;
77099;SDS011;66602;48.922;2.414;2023-04-24T03:46:32;5.25;;;2.78;;
77099;SDS011;66602;48.922;2.414;2023-04-24T03:49:00;6.90;;;2.20;;
77099;SDS011;66602;48.922;2.414;2023-04-24T03:51:26;7.70;;;2.38;;
77099;SDS011;66602;48.922;2.414;2023-04-24T03:53:53;2.22;;;2.00;;
77099;SDS011;66602;48.922;2.414;2023-04-24T03:56:20;3.55;;;2.25;;
77099;SDS011;66602;48.922;2.414;2023-04-24T03:58:47;4.70;;;2.40;;
77099;SDS011;66602;48.922;2.414;2023-04-24T04:01:12;3.33;;;2.47;;
77099;SDS011;66602;48.922;2.414;2023-04-24T04:03:38;2.60;;;2.40;;
77099;SDS011;66602;48.922;2.414;2023-04-24T04:06:03;6.47;;;2.53;;
77099;SDS011;66602;48.922;2.414;2023-04-24T04:08:29;11.35;;;2.72;;
77099;SDS011;66602;48.922;2.414;2023-04-24T04:10:55;8.73;;;2.95;;
77099;SDS011;66602;48.922;2.414;2023-04-24T04:13:20;3.47;;;2.97;;
77099;SDS011;66602;48.922;2.414;2023-04-24T04:15:46;4.88;;;2.80;;
77099;SDS011;66602;48.922;2.414;2023-04-24T04:18:12;3.78;;;2.50;;
77099;SDS011;66602;48.922;2.414;2023-04-24T04:20:37;4.07;;;3.08;;
77099;SDS011;66602;48.922;2.414;2023-04-24T04:23:04;3.55;;;3.25;;
77099;SDS011;66602;48.922;2.414;2023-04-24T04:25:29;4.57;;;3.30;;
77099;SDS011;66602;48.922;2.414;2023-04-24T04:27:55;7.05;;;3.60;;
77099;SDS011;66602;48.922;2.414;2023-04-24T04:30:23;12.18;;;3.70;;
77099;SDS011;66602;48.922;2.414;2023-04-24T04:32:48;7.25;;;3.50;;
77099;SDS011;66602;48.922;2.414;2023-04-24T04:35:14;7.65;;;3.38;;
77099;SDS011;66602;48.922;2.414;2023-04-24T04:37:40;7.97;;;3.13;;
77099;SDS011;66602;48.922;2.414;2023-04-24T04:40:05;5.32;;;3.00;;
77099;SDS011;66602;48.922;2.414;2023-04-24T04:42:32;15.25;;;3.55;;
77099;SDS011;66602;48.922;2.414;2023-04-24T04:44:59;8.23;;;4.15;;
77099;SDS011;66602;48.922;2.414;2023-04-24T04:47:25;9.70;;;3.63;;
77099;SDS011;66602;48.922;2.414;2023-04-24T04:49:52;8.25;;;3.05;;
77099;SDS011;66602;48.922;2.414;2023-04-24T04:52:18;4.35;;;2.90;;
77099;SDS011;66602;48.922;2.414;2023-04-24T04:54:44;4.50;;;2.83;;
77099;SDS011;66602;48.922;2.414;2023-04-24T04:57:11;7.30;;;3.03;;
77099;SDS011;66602;48.922;2.414;2023-04-24T04:59:37;6.97;;;3.25;;
77099;SDS011;66602;48.922;2.414;2023-04-24T05:02:02;3.58;;;3.28;;
77099;SDS011;66602;48.922;2.414;2023-04-24T05:04:28;4.15;;;3.35;;
77099;SDS011;66602;48.922;2.414;2023-04-24T05:06:53;3.20;;;2.90;;
77099;SDS011;66602;48.922;2.414;2023-04-24T05:09:19;5.40;;;3.17;;
77099;SDS011;66602;48.922;2.414;2023-04-24T05:11:54;3.42;;;3.15;;
77099;SDS011;66602;48.922;2.414;2023-04-24T05:14:21;14.10;;;3.85;;
77099;SDS011;66602;48.922;2.414;2023-04-24T05:16:49;5.60;;;3.22;;
77099;SDS011;66602;48.922;2.414;2023-04-24T05:19:21;6.90;;;3.10;;
77099;SDS011;66602;48.922;2.414;2023-04-24T05:22:06;4.97;;;3.08;;
77099;SDS011;66602;48.922;2.414;2023-04-24T05:24:35;6.15;;;2.92;;
77099;SDS011;66602;48.922;2.414;2023-04-24T05:27:04;7.25;;;3.33;;
77099;SDS011;66602;48.922;2.414;2023-04-24T05:29:32;12.00;;;3.38;;
77099;SDS011;66602;48.922;2.414;2023-04-24T05:31:59;8.48;;;3.53;;
77099;SDS011;66602;48.922;2.414;2023-04-24T05:34:25;9.02;;;4.20;;
77099;SDS011;66602;48.922;2.414;2023-04-24T05:36:51;3.55;;;3.25;;
77099;SDS011;66602;48.922;2.414;2023-04-24T05:39:18;8.52;;;3.30;;
77099;SDS011;66602;48.922;2.414;2023-04-24T05:41:46;6.47;;;3.00;;
77099;SDS011;66602;48.922;2.414;2023-04-24T05:44:31;5.72;;;3.30;;
77099;SDS011;66602;48.922;2.414;2023-04-24T05:46:57;6.85;;;3.78;;
77099;SDS011;66602;48.922;2.414;2023-04-24T05:49:22;10.13;;;3.97;;
77099;SDS011;66602;48.922;2.414;2023-04-24T05:51:50;6.10;;;3.50;;
77099;SDS011;66602;48.922;2.414;2023-04-24T05:54:15;6.30;;;4.03;;
77099;SDS011;66602;48.922;2.414;2023-04-24T05:56:45;4.43;;;4.05;;
77099;SDS011;66602;48.922;2.414;2023-04-24T05:59:13;5.28;;;3.53;;
77099;SDS011;66602;48.922;2.414;2023-04-24T06:01:39;11.48;;;4.55;;
77099;SDS011;66602;48.922;2.414;2023-04-24T06:04:05;7.38;;;4.28;;
77099;SDS011;66602;48.922;2.414;2023-04-24T06:06:31;10.75;;;4.03;;
77099;SDS011;66602;48.922;2.414;2023-04-24T06:09:15;5.45;;;4.30;;
77099;SDS011;66602;48.922;2.414;2023-04-24T06:11:43;9.30;;;4.25;;
77099;SDS011;66602;48.922;2.414;2023-04-24T06:14:08;4.63;;;4.07;;
77099;SDS011;66602;48.922;2.414;2023-04-24T06:16:37;9.18;;;4.10;;
77099;SDS011;66602;48.922;2.414;2023-04-24T06:19:04;5.53;;;4.18;;
77099;SDS011;66602;48.922;2.414;2023-04-24T06:21:30;13.88;;;4.93;;
77099;SDS011;66602;48.922;2.414;2023-04-24T06:23:56;7.38;;;3.72;;
77099;SDS011;66602;48.922;2.414;2023-04-24T06:26:35;7.80;;;4.20;;
77099;SDS011;66602;48.922;2.414;2023-04-24T06:29:13;4.32;;;4.03;;
77099;SDS011;66602;48.922;2.414;2023-04-24T06:31:51;4.22;;;3.83;;
77099;SDS011;66602;48.922;2.414;2023-04-24T06:34:17;6.57;;;5.20;;
77099;SDS011;66602;48.922;2.414;2023-04-24T06:36:43;9.25;;;4.53;;
77099;SDS011;66602;48.922;2.414;2023-04-24T06:39:08;8.18;;;4.10;;
77099;SDS011;66602;48.922;2.414;2023-04-24T06:41:34;8.07;;;4.55;;
77099;SDS011;66602;48.922;2.414;2023-04-24T06:43:59;4.68;;;4.07;;
77099;SDS011;66602;48.922;2.414;2023-04-24T06:46:25;10.75;;;6.57;;
77099;SDS011;66602;48.922;2.414;2023-04-24T06:48:52;6.18;;;4.50;;
77099;SDS011;66602;48.922;2.414;2023-04-24T06:51:22;10.48;;;4.80;;
77099;SDS011;66602;48.922;2.414;2023-04-24T06:53:53;7.03;;;4.80;;
77099;SDS011;66602;48.922;2.414;2023-04-24T06:56:21;5.95;;;4.40;;
77099;SDS011;66602;48.922;2.414;2023-04-24T06:58:47;7.75;;;4.93;;
77099;SDS011;66602;48.922;2.414;2023-04-24T07:01:12;5.57;;;5.05;;
77099;SDS011;66602;48.922;2.414;2023-04-24T07:03:38;9.65;;;5.10;;
77099;SDS011;66602;48.922;2.414;2023-04-24T07:06:04;6.03;;;5.28;;
77099;SDS011;66602;48.922;2.414;2023-04-24T07:08:30;8.25;;;5.35;;
77099;SDS011;66602;48.922;2.414;2023-04-24T07:10:56;7.22;;;5.38;;
77099;SDS011;66602;48.922;2.414;2023-04-24T07:13:22;12.00;;;5.88;;
77099;SDS011;66602;48.922;2.414;2023-04-24T07:15:48;9.50;;;4.60;;
77099;SDS011;66602;48.922;2.414;2023-04-24T07:18:19;5.60;;;4.90;;
77099;SDS011;66602;48.922;2.414;2023-04-24T07:20:45;9.57;;;5.13;;
77099;SDS011;66602;48.922;2.414;2023-04-24T07:23:11;7.43;;;5.75;;
77099;SDS011;66602;48.922;2.414;2023-04-24T07:25:37;5.22;;;4.93;;
77099;SDS011;66602;48.922;2.414;2023-04-24T07:28:03;7.45;;;5.43;;
77099;SDS011;66602;48.922;2.414;2023-04-24T07:30:30;8.75;;;6.15;;
77099;SDS011;66602;48.922;2.414;2023-04-24T07:32:57;11.55;;;6.40;;
77099;SDS011;66602;48.922;2.414;2023-04-24T07:35:23;7.43;;;5.13;;
77099;SDS011;66602;48.922;2.414;2023-04-24T07:37:50;5.10;;;4.65;;
77099;SDS011;66602;48.922;2.414;2023-04-24T07:40:17;7.28;;;6.55;;
77099;SDS011;66602;48.922;2.414;2023-04-24T07:42:43;11.98;;;5.85;;
77099;SDS011;66602;48.922;2.414;2023-04-24T07:45:09;10.48;;;5.88;;
77099;SDS011;66602;48.922;2.414;2023-04-24T07:47:34;6.63;;;5.93;;
77099;SDS011;66602;48.922;2.414;2023-04-24T07:50:02;7.78;;;6.00;;
77099;SDS011;66602;48.922;2.414;2023-04-24T07:52:27;10.13;;;6.00;;
77099;SDS011;66602;48.922;2.414;2023-04-24T07:54:54;7.22;;;6.55;;
77099;SDS011;66602;48.922;2.414;2023-04-24T07:57:24;6.63;;;6.13;;
77099;SDS011;66602;48.922;2.414;2023-04-24T07:59:50;7.07;;;6.40;;
77099;SDS011;66602;48.922;2.414;2023-04-24T08:02:15;7.97;;;6.95;;
77099;SDS011;66602;48.922;2.414;2023-04-24T08:04:41;8.60;;;6.82;;
77099;SDS011;66602;48.922;2.414;2023-04-24T08:07:06;6.78;;;6.07;;
77099;SDS011;66602;48.922;2.414;2023-04-24T08:09:32;6.82;;;6.18;;
77099;SDS011;66602;48.922;2.414;2023-04-24T08:11:58;7.60;;;5.93;;
77099;SDS011;66602;48.922;2.414;2023-04-24T08:14:24;9.70;;;6.45;;
77099;SDS011;66602;48.922;2.414;2023-04-24T08:16:49;7.45;;;6.03;;
77099;SDS011;66602;48.922;2.414;2023-04-24T08:19:15;12.60;;;6.82;;
77099;SDS011;66602;48.922;2.414;2023-04-24T08:21:41;8.18;;;6.78;;
77099;SDS011;66602;48.922;2.414;2023-04-24T08:24:07;7.28;;;6.38;;
77099;SDS011;66602;48.922;2.414;2023-04-24T08:26:33;6.03;;;5.40;;
77099;SDS011;66602;48.922;2.414;2023-04-24T08:28:59;7.88;;;6.55;;
77099;SDS011;66602;48.922;2.414;2023-04-24T08:31:25;9.02;;;6.43;;
77099;SDS011;66602;48.922;2.414;2023-04-24T08:33:51;15.18;;;6.47;;
77099;SDS011;66602;48.922;2.414;2023-04-24T08:36:17;6.88;;;6.30;;
77099;SDS011;66602;48.922;2.414;2023-04-24T08:38:43;12.10;;;6.35;;
77099;SDS011;66602;48.922;2.414;2023-04-24T08:41:12;6.32;;;5.88;;
77099;SDS011;66602;48.922;2.414;2023-04-24T08:43:41;8.55;;;6.47;;
77099;SDS011;66602;48.922;2.414;2023-04-24T08:46:07;7.70;;;6.32;;
77099;SDS011;66602;48.922;2.414;2023-04-24T08:48:34;6.45;;;5.85;;
77099;SDS011;66602;48.922;2.414;2023-04-24T08:51:00;6.25;;;5.65;;
77099;SDS011;66602;48.922;2.414;2023-04-24T08:53:28;8.90;;;6.32;;
77099;SDS011;66602;48.922;2.414;2023-04-24T08:55:54;6.78;;;6.00;;
77099;SDS011;66602;48.922;2.414;2023-04-24T08:58:21;7.60;;;6.07;;
77099;SDS011;66602;48.922;2.414;2023-04-24T09:00:50;8.55;;;6.35;;
77099;SDS011;66602;48.922;2.414;2023-04-24T09:03:15;7.32;;;6.10;;
77099;SDS011;66602;48.922;2.414;2023-04-24T09:05:42;6.47;;;5.65;;
77099;SDS011;66602;48.922;2.414;2023-04-24T09:08:10;13.98;;;6.53;;
77099;SDS011;66602;48.922;2.414;2023-04-24T09:10:38;9.00;;;5.80;;
77099;SDS011;66602;48.922;2.414;2023-04-24T09:13:04;6.60;;;6.00;;
77099;SDS011;66602;48.922;2.414;2023-04-24T09:15:31;8.38;;;6.53;;
77099;SDS011;66602;48.922;2.414;2023-04-24T09:17:57;7.38;;;6.75;;
77099;SDS011;66602;48.922;2.414;2023-04-24T09:20:22;11.88;;;6.35;;
77099;SDS011;66602;48.922;2.414;2023-04-24T09:22:48;6.50;;;6.00;;
77099;SDS011;66602;48.922;2.414;2023-04-24T09:25:20;6.30;;;5.80;;
77099;SDS011;66602;48.922;2.414;2023-04-24T09:27:46;15.00;;;6.35;;
77099;SDS011;66602;48.922;2.414;2023-04-24T09:30:12;7.18;;;6.75;;
77099;SDS011;66602;48.922;2.414;2023-04-24T09:32:38;10.85;;;6.15;;
77099;SDS011;66602;48.922;2.414;2023-04-24T09:35:06;7.32;;;6.55;;
77099;SDS011;66602;48.922;2.414;2023-04-24T09:37:40;7.20;;;6.38;;
77099;SDS011;66602;48.922;2.414;2023-04-24T09:40:11;7.45;;;6.07;;
77099;SDS011;66602;48.922;2.414;2023-04-24T09:42:45;7.43;;;5.68;;
77099;SDS011;66602;48.922;2.414;2023-04-24T09:45:16;6.18;;;5.68;;
77099;SDS011;66602;48.922;2.414;2023-04-24T09:47:42;8.13;;;6.60;;
77099;SDS011;66602;48.922;2.414;2023-04-24T09:50:11;11.98;;;6.55;;
77099;SDS011;66602;48.922;2.414;2023-04-24T09:52:45;7.63;;;6.43;;
77099;SDS011;66602;48.922;2.414;2023-04-24T09:55:19;6.63;;;6.22;;
77099;SDS011;66602;48.922;2.414;2023-04-24T09:57:49;6.88;;;6.15;;
77099;SDS011;66602;48.922;2.414;2023-04-24T10:00:22;8.32;;;6.55;;
77099;SDS011;66602;48.922;2.414;2023-04-24T10:02:57;7.40;;;6.38;;
77099;SDS011;66602;48.922;2.414;2023-04-24T10:05:30;7.00;;;6.50;;
77099;SDS011;66602;48.922;2.414;2023-04-24T10:08:07;6.38;;;5.85;;
77099;SDS011;66602;48.922;2.414;2023-04-24T10:10:35;7.53;;;6.40;;
77099;SDS011;66602;48.922;2.414;2023-04-24T10:13:04;11.57;;;7.18;;
77099;SDS011;66602;48.922;2.414;2023-04-24T10:15:30;6.35;;;5.75;;
77099;SDS011;66602;48.922;2.414;2023-04-24T10:17:57;7.82;;;6.78;;
77099;SDS011;66602;48.922;2.414;2023-04-24T10:20:27;6.78;;;6.25;;
77099;SDS011;66602;48.922;2.414;2023-04-24T10:22:56;8.70;;;7.90;;
77099;SDS011;66602;48.922;2.414;2023-04-24T10:25:23;7.47;;;6.65;;
77099;SDS011;66602;48.922;2.414;2023-04-24T10:27:52;10.35;;;5.50;;
77099;SDS011;66602;48.922;2.414;2023-04-24T10:30:19;6.18;;;5.60;;
77099;SDS011;66602;48.922;2.414;2023-04-24T10:32:45;8.55;;;7.72;;
77099;SDS011;66602;48.922;2.414;2023-04-24T10:35:12;11.23;;;6.13;;
77099;SDS011;66602;48.922;2.414;2023-04-24T10:37:40;8.63;;;5.53;;
77099;SDS011;66602;48.922;2.414;2023-04-24T10:40:30;6.32;;;5.82;;
77099;SDS011;66602;48.922;2.414;2023-04-24T10:42:58;6.07;;;5.47;;
77099;SDS011;66602;48.922;2.414;2023-04-24T10:45:25;7.32;;;6.10;;
77099;SDS011;66602;48.922;2.414;2023-04-24T10:47:51;5.80;;;5.32;;
77099;SDS011;66602;48.922;2.414;2023-04-24T10:50:23;5.47;;;5.05;;
77099;SDS011;66602;48.922;2.414;2023-04-24T10:52:53;6.47;;;5.88;;
77099;SDS011;66602;48.922;2.414;2023-04-24T10:55:40;5.32;;;5.03;;
77099;SDS011;66602;48.922;2.414;2023-04-24T10:58:09;5.28;;;4.90;;
77099;SDS011;66602;48.922;2.414;2023-04-24T11:00:39;5.47;;;5.07;;
77099;SDS011;66602;48.922;2.414;2023-04-24T11:03:06;7.25;;;5.10;;
77099;SDS011;66602;48.922;2.414;2023-04-24T11:08:27;5.13;;;4.75;;
77099;SDS011;66602;48.922;2.414;2023-04-24T11:19:04;5.05;;;4.75;;
77099;SDS011;66602;48.922;2.414;2023-04-24T11:21:32;4.90;;;4.10;;
77099;SDS011;66602;48.922;2.414;2023-04-24T11:26:47;10.48;;;4.10;;
77099;SDS011;66602;48.922;2.414;2023-04-24T11:29:13;5.70;;;4.60;;
77099;SDS011;66602;48.922;2.414;2023-04-24T11:31:39;7.97;;;4.78;;
77099;SDS011;66602;48.922;2.414;2023-04-24T11:34:10;4.93;;;4.53;;
77099;SDS011;66602;48.922;2.414;2023-04-24T11:36:42;4.60;;;4.30;;
77099;SDS011;66602;48.922;2.414;2023-04-24T11:39:09;5.18;;;4.78;;
77099;SDS011;66602;48.922;2.414;2023-04-24T11:41:36;5.28;;;3.70;;
77099;SDS011;66602;48.922;2.414;2023-04-24T11:44:02;4.25;;;4.03;;
77099;SDS011;66602;48.922;2.414;2023-04-24T11:46:29;4.25;;;4.03;;
77099;SDS011;66602;48.922;2.414;2023-04-24T11:48:56;4.60;;;4.15;;
77099;SDS011;66602;48.922;2.414;2023-04-24T11:51:23;4.22;;;3.60;;
77099;SDS011;66602;48.922;2.414;2023-04-24T11:53:50;4.10;;;3.80;;
77099;SDS011;66602;48.922;2.414;2023-04-24T11:56:21;4.85;;;3.70;;
77099;SDS011;66602;48.922;2.414;2023-04-24T11:58:51;4.45;;;4.05;;
77099;SDS011;66602;48.922;2.414;2023-04-24T12:01:18;4.95;;;4.28;;
77099;SDS011;66602;48.922;2.414;2023-04-24T12:03:50;8.93;;;4.28;;
77099;SDS011;66602;48.922;2.414;2023-04-24T12:06:24;5.18;;;4.25;;
77099;SDS011;66602;48.922;2.414;2023-04-24T12:08:51;5.25;;;4.05;;
77099;SDS011;66602;48.922;2.414;2023-04-24T12:11:17;4.45;;;4.05;;
77099;SDS011;66602;48.922;2.414;2023-04-24T12:13:44;5.00;;;4.53;;
77099;SDS011;66602;48.922;2.414;2023-04-24T12:16:10;3.88;;;3.08;;
77099;SDS011;66602;48.922;2.414;2023-04-24T12:18:41;5.10;;;3.33;;
77099;SDS011;66602;48.922;2.414;2023-04-24T12:21:20;7.72;;;4.03;;
77099;SDS011;66602;48.922;2.414;2023-04-24T12:23:47;5.05;;;4.65;;
77099;SDS011;66602;48.922;2.414;2023-04-24T12:26:16;3.35;;;3.10;;
77099;SDS011;66602;48.922;2.414;2023-04-24T12:28:48;6.32;;;3.30;;
77099;SDS011;66602;48.922;2.414;2023-04-24T12:31:15;3.50;;;3.20;;
77099;SDS011;66602;48.922;2.414;2023-04-24T12:33:41;4.57;;;3.78;;
77099;SDS011;66602;48.922;2.414;2023-04-24T12:36:09;3.83;;;3.53;;
77099;SDS011;66602;48.922;2.414;2023-04-24T12:38:37;4.03;;;3.83;;
77099;SDS011;66602;48.922;2.414;2023-04-24T12:41:10;4.43;;;4.10;;
77099;SDS011;66602;48.922;2.414;2023-04-24T12:43:38;3.88;;;3.60;;
77099;SDS011;66602;48.922;2.414;2023-04-24T12:46:17;2.50;;;2.40;;
77099;SDS011;66602;48.922;2.414;2023-04-24T12:48:43;3.80;;;2.60;;
77099;SDS011;66602;48.922;2.414;2023-04-24T12:51:09;3.08;;;2.80;;
77099;SDS011;66602;48.922;2.414;2023-04-24T12:53:36;5.40;;;2.55;;
77099;SDS011;66602;48.922;2.414;2023-04-24T12:56:01;2.10;;;1.98;;
77099;SDS011;66602;48.922;2.414;2023-04-24T12:58:28;3.65;;;2.30;;
77099;SDS011;66602;48.922;2.414;2023-04-24T13:00:54;2.15;;;2.00;;
77099;SDS011;66602;48.922;2.414;2023-04-24T13:03:20;2.03;;;1.92;;
77099;SDS011;66602;48.922;2.414;2023-04-24T13:05:47;4.65;;;2.50;;
77099;SDS011;66602;48.922;2.414;2023-04-24T13:08:14;4.25;;;2.00;;
77099;SDS011;66602;48.922;2.414;2023-04-24T13:10:40;2.88;;;2.55;;
77099;SDS011;66602;48.922;2.414;2023-04-24T13:13:06;3.55;;;2.30;;
77099;SDS011;66602;48.922;2.414;2023-04-24T13:15:32;2.97;;;2.78;;
77099;SDS011;66602;48.922;2.414;2023-04-24T13:18:01;3.47;;;2.28;;
77099;SDS011;66602;48.922;2.414;2023-04-24T13:20:27;2.15;;;2.05;;
77099;SDS011;66602;48.922;2.414;2023-04-24T13:22:53;1.90;;;1.80;;
77099;SDS011;66602;48.922;2.414;2023-04-24T13:25:19;4.15;;;2.25;;
77099;SDS011;66602;48.922;2.414;2023-04-24T13:27:45;2.72;;;2.50;;
77099;SDS011;66602;48.922;2.414;2023-04-24T13:30:12;8.13;;;3.30;;
77099;SDS011;66602;48.922;2.414;2023-04-24T13:32:38;2.95;;;2.13;;
77099;SDS011;66602;48.922;2.414;2023-04-24T13:35:04;2.80;;;2.42;;
77099;SDS011;66602;48.922;2.414;2023-04-24T13:37:31;2.97;;;2.53;;
77099;SDS011;66602;48.922;2.414;2023-04-24T13:39:57;2.45;;;2.30;;
77099;SDS011;66602;48.922;2.414;2023-04-24T13:42:23;2.40;;;2.20;;
77099;SDS011;66602;48.922;2.414;2023-04-24T13:44:49;2.00;;;1.90;;
77099;SDS011;66602;48.922;2.414;2023-04-24T13:47:16;3.75;;;1.95;;
77099;SDS011;66602;48.922;2.414;2023-04-24T13:49:42;4.70;;;2.80;;
77099;SDS011;66602;48.922;2.414;2023-04-24T13:52:07;3.72;;;2.10;;
77099;SDS011;66602;48.922;2.414;2023-04-24T13:54:36;2.42;;;2.28;;
77099;SDS011;66602;48.922;2.414;2023-04-24T13:57:02;2.97;;;2.28;;
77099;SDS011;66602;48.922;2.414;2023-04-24T13:59:28;2.17;;;2.08;;
77099;SDS011;66602;48.922;2.414;2023-04-24T14:01:54;2.20;;;2.10;;
77099;SDS011;66602;48.922;2.414;2023-04-24T14:04:21;2.78;;;2.33;;
77099;SDS011;66602;48.922;2.414;2023-04-24T14:06:47;4.10;;;3.00;;
77099;SDS011;66602;48.922;2.414;2023-04-24T14:09:13;3.33;;;2.40;;
77099;SDS011;66602;48.922;2.414;2023-04-24T14:11:40;3.58;;;1.75;;
77099;SDS011;66602;48.922;2.414;2023-04-24T14:14:08;2.92;;;1.98;;
77099;SDS011;66602;48.922;2.414;2023-04-24T14:16:34;1.92;;;1.83;;
77099;SDS011;66602;48.922;2.414;2023-04-24T14:19:00;1.88;;;1.70;;
77099;SDS011;66602;48.922;2.414;2023-04-24T14:21:26;1.75;;;1.67;;
77099;SDS011;66602;48.922;2.414;2023-04-24T14:23:52;2.10;;;1.90;;
77099;SDS011;66602;48.922;2.414;2023-04-24T14:26:19;1.90;;;1.80;;
77099;SDS011;66602;48.922;2.414;2023-04-24T14:28:45;1.80;;;1.70;;
77099;SDS011;66602;48.922;2.414;2023-04-24T14:31:10;6.28;;;2.00;;
77099;SDS011;66602;48.922;2.414;2023-04-24T14:33:36;3.00;;;1.33;;
77099;SDS011;66602;48.922;2.414;2023-04-24T14:36:02;1.30;;;1.30;;
77099;SDS011;66602;48.922;2.414;2023-04-24T14:38:29;2.03;;;1.92;;
77099;SDS011;66602;48.922;2.414;2023-04-24T14:40:56;1.88;;;1.77;;
77099;SDS011;66602;48.922;2.414;2023-04-24T14:43:22;1.90;;;1.80;;
77099;SDS011;66602;48.922;2.414;2023-04-24T14:45:47;1.95;;;1.85;;
77099;SDS011;66602;48.922;2.414;2023-04-24T14:48:13;3.55;;;1.88;;
77099;SDS011;66602;48.922;2.414;2023-04-24T14:50:39;1.92;;;1.60;;
77099;SDS011;66602;48.922;2.414;2023-04-24T14:53:04;2.50;;;1.80;;
77099;SDS011;66602;48.922;2.414;2023-04-24T14:55:30;3.63;;;2.13;;
77099;SDS011;66602;48.922;2.414;2023-04-24T14:57:56;4.85;;;2.90;;
77099;SDS011;66602;48.922;2.414;2023-04-24T15:00:22;2.90;;;1.80;;